Time;durP1;ratioP1;P1;durP2;ratioP2;P2;SDS_P1;SDS_P2;PMS_P1;PMS_P2;Temp;Humidity;BMP_temperature;BMP_pressure;BME280_temperature;BME280_humidity;BME280_pressure;Samples;Min_cycle;Max_cycle;Signal;HPM_P1;HPM_P2
2023/05/09 00:01:10;;;;;;;12.88;9.85;;;;;;;;;;5013803;28;20073;-70
2023/05/09 00:03:35;;;;;;;12.30;9.15;;;;;;;;;;5016056;28;20041;-72
2023/05/09 00:06:01;;;;;;;12.77;9.20;;;;;;;;;;5016702;28;20132;-73
2023/05/09 00:08:26;;;;;;;10.75;9.00;;;;;;;;;;5020920;28;20045;-73
2023/05/09 00:10:52;;;;;;;11.52;8.77;;;;;;;;;;5021769;28;20049;-72
2023/05/09 00:13:18;;;;;;;15.82;9.30;;;;;;;;;;5018630;28;20161;-73
2023/05/09 00:15:45;;;;;;;13.13;9.75;;;;;;;;;;5021201;28;20578;-74
2023/05/09 00:18:11;;;;;;;13.75;9.45;;;;;;;;;;5035718;28;20148;-72
2023/05/09 00:20:39;;;;;;;11.98;9.65;;;;;;;;;;5015657;28;20041;-72
2023/05/09 00:23:06;;;;;;;13.90;9.85;;;;;;;;;;5015972;28;20045;-72
2023/05/09 00:25:31;;;;;;;15.13;10.18;;;;;;;;;;5018264;28;20130;-72
2023/05/09 00:27:57;;;;;;;14.98;10.80;;;;;;;;;;5013025;28;20506;-72
2023/05/09 00:30:23;;;;;;;14.65;9.80;;;;;;;;;;5008424;28;20073;-72
2023/05/09 00:32:48;;;;;;;15.48;10.93;;;;;;;;;;5019770;28;20065;-72
2023/05/09 00:35:14;;;;;;;15.32;10.48;;;;;;;;;;5014278;28;20080;-73
2023/05/09 00:37:40;;;;;;;15.57;11.18;;;;;;;;;;5036428;28;20046;-73
2023/05/09 00:40:08;;;;;;;14.10;10.13;;;;;;;;;;5019926;28;20057;-72
2023/05/09 00:42:34;;;;;;;13.50;10.57;;;;;;;;;;5013351;28;20041;-72
2023/05/09 00:45:00;;;;;;;14.50;10.68;;;;;;;;;;5036237;28;20792;-72
2023/05/09 00:47:27;;;;;;;15.43;9.82;;;;;;;;;;5021067;28;20053;-72
2023/05/09 00:49:53;;;;;;;16.42;9.82;;;;;;;;;;5017135;28;20046;-72
2023/05/09 00:52:22;;;;;;;13.38;10.35;;;;;;;;;;5014674;28;20123;-71
2023/05/09 00:54:49;;;;;;;17.67;10.63;;;;;;;;;;5013005;28;20056;-70
2023/05/09 00:57:15;;;;;;;16.20;10.93;;;;;;;;;;5019485;28;20045;-71
2023/05/09 00:59:41;;;;;;;15.90;10.95;;;;;;;;;;5036366;28;20045;-70
2023/05/09 01:02:07;;;;;;;18.20;12.10;;;;;;;;;;5012291;28;20045;-70
2023/05/09 01:04:32;;;;;;;16.60;11.27;;;;;;;;;;5033647;28;20057;-70
2023/05/09 01:07:22;;;;;;;15.40;10.63;;;;;;;;;;5010204;28;20054;-70
2023/05/09 01:10:14;;;;;;;15.55;11.18;;;;;;;;;;5010805;28;20052;-70
2023/05/09 01:12:49;;;;;;;22.25;11.30;;;;;;;;;;5013696;28;20069;-70
2023/05/09 01:15:38;;;;;;;19.70;12.07;;;;;;;;;;5018599;28;20057;-74
2023/05/09 01:18:09;;;;;;;18.40;12.70;;;;;;;;;;5027251;28;20490;-71
2023/05/09 01:20:44;;;;;;;18.65;11.65;;;;;;;;;;5017778;28;20482;-71
2023/05/09 01:23:24;;;;;;;15.90;11.38;;;;;;;;;;5013739;28;20061;-71
2023/05/09 01:26:17;;;;;;;20.10;12.88;;;;;;;;;;5012571;28;20041;-71
2023/05/09 01:29:11;;;;;;;19.05;12.88;;;;;;;;;;5017850;28;20045;-72
2023/05/09 01:31:40;;;;;;;16.42;11.80;;;;;;;;;;4999825;28;20553;-71
2023/05/09 01:34:07;;;;;;;16.63;12.45;;;;;;;;;;5016573;28;20132;-72
2023/05/09 01:36:35;;;;;;;17.55;11.98;;;;;;;;;;5031736;28;20096;-72
2023/05/09 01:39:03;;;;;;;17.80;12.38;;;;;;;;;;5011902;28;20102;-71
2023/05/09 01:41:30;;;;;;;16.48;12.18;;;;;;;;;;5010220;28;20179;-72
2023/05/09 01:44:00;;;;;;;17.15;12.48;;;;;;;;;;5012036;28;20041;-73
2023/05/09 01:46:27;;;;;;;15.90;12.13;;;;;;;;;;5019411;28;20044;-73
2023/05/09 01:48:54;;;;;;;18.20;11.98;;;;;;;;;;5018868;28;20053;-72
2023/05/09 01:51:20;;;;;;;18.05;11.90;;;;;;;;;;5032602;28;20050;-71
2023/05/09 01:53:48;;;;;;;21.90;13.48;;;;;;;;;;5004280;28;20060;-71
2023/05/09 01:56:14;;;;;;;16.08;12.00;;;;;;;;;;5025334;28;20168;-71
2023/05/09 01:58:41;;;;;;;16.38;11.15;;;;;;;;;;5011859;28;20065;-71
2023/05/09 02:01:08;;;;;;;16.52;11.90;;;;;;;;;;5018687;28;20041;-72
2023/05/09 02:03:36;;;;;;;16.98;11.23;;;;;;;;;;5025028;28;20045;-72
2023/05/09 02:06:02;;;;;;;15.63;11.65;;;;;;;;;;5011559;28;20041;-72
2023/05/09 02:08:28;;;;;;;14.85;10.40;;;;;;;;;;5010236;28;20063;-72
2023/05/09 02:10:54;;;;;;;15.77;11.73;;;;;;;;;;5018626;28;20362;-72
2023/05/09 02:13:19;;;;;;;17.48;12.27;;;;;;;;;;5018887;28;20125;-72
2023/05/09 02:15:46;;;;;;;15.43;11.38;;;;;;;;;;5012430;28;20052;-72
2023/05/09 02:18:12;;;;;;;16.23;11.57;;;;;;;;;;5035044;28;20052;-71
2023/05/09 02:20:39;;;;;;;16.40;10.95;;;;;;;;;;5019254;28;20136;-71
2023/05/09 02:23:05;;;;;;;17.55;11.85;;;;;;;;;;5019218;28;20140;-72
2023/05/09 02:25:32;;;;;;;18.23;12.68;;;;;;;;;;5018303;28;20037;-69
2023/05/09 02:27:58;;;;;;;15.07;11.23;;;;;;;;;;5022445;28;20046;-70
2023/05/09 02:30:25;;;;;;;16.40;12.23;;;;;;;;;;5017792;28;21052;-73
2023/05/09 02:32:58;;;;;;;23.45;12.30;;;;;;;;;;5019711;28;20041;-70
2023/05/09 02:35:26;;;;;;;13.98;10.88;;;;;;;;;;5014187;28;20136;-70
2023/05/09 02:37:52;;;;;;;18.67;11.65;;;;;;;;;;5035132;28;20056;-70
2023/05/09 02:40:19;;;;;;;17.77;11.80;;;;;;;;;;5018210;28;20045;-71
2023/05/09 02:42:44;;;;;;;17.00;12.07;;;;;;;;;;5017819;28;20052;-72
2023/05/09 02:45:10;;;;;;;17.65;12.43;;;;;;;;;;5033317;28;20414;-72
2023/05/09 02:47:36;;;;;;;17.40;12.50;;;;;;;;;;5018421;28;20054;-72
2023/05/09 02:50:02;;;;;;;19.58;12.60;;;;;;;;;;5021629;28;20114;-71
2023/05/09 02:52:29;;;;;;;16.63;12.13;;;;;;;;;;5025367;28;20045;-71
2023/05/09 02:54:54;;;;;;;17.73;12.40;;;;;;;;;;5021802;28;20045;-73
2023/05/09 02:57:20;;;;;;;16.17;11.70;;;;;;;;;;5036324;28;20042;-72
2023/05/09 02:59:45;;;;;;;17.70;11.32;;;;;;;;;;5023294;28;20087;-73
2023/05/09 03:02:11;;;;;;;17.70;12.75;;;;;;;;;;5022515;28;20037;-72
2023/05/09 03:04:36;;;;;;;18.08;12.60;;;;;;;;;;5022556;28;20397;-72
2023/05/09 03:07:02;;;;;;;18.17;12.45;;;;;;;;;;5035406;28;20052;-72
2023/05/09 03:09:31;;;;;;;18.30;12.65;;;;;;;;;;5004081;28;20470;-73
2023/05/09 03:11:56;;;;;;;16.65;11.50;;;;;;;;;;5016350;28;20530;-72
2023/05/09 03:14:22;;;;;;;16.80;12.48;;;;;;;;;;5003518;28;20476;-72
2023/05/09 03:16:48;;;;;;;16.33;11.63;;;;;;;;;;5029609;28;20046;-73
2023/05/09 03:19:22;;;;;;;16.85;11.77;;;;;;;;;;5015423;28;20112;-73
2023/05/09 03:21:47;;;;;;;17.92;12.85;;;;;;;;;;4993880;28;20045;-73
2023/05/09 03:24:13;;;;;;;19.02;12.75;;;;;;;;;;5035297;28;20483;-72
2023/05/09 03:26:38;;;;;;;19.33;12.25;;;;;;;;;;5034120;28;20073;-74
2023/05/09 03:29:04;;;;;;;19.98;12.10;;;;;;;;;;5033422;28;20042;-72
2023/05/09 03:31:30;;;;;;;22.70;12.00;;;;;;;;;;5002988;28;20490;-72
2023/05/09 03:33:56;;;;;;;18.27;11.73;;;;;;;;;;5008374;28;20066;-73
2023/05/09 03:36:22;;;;;;;19.33;11.85;;;;;;;;;;5020295;28;20049;-73
2023/05/09 03:38:48;;;;;;;22.38;12.88;;;;;;;;;;5021384;28;20148;-73
2023/05/09 03:41:15;;;;;;;19.40;13.38;;;;;;;;;;5034602;28;20091;-72
2023/05/09 03:43:44;;;;;;;18.00;12.85;;;;;;;;;;5033678;28;20049;-71
2023/05/09 03:46:10;;;;;;;20.65;14.32;;;;;;;;;;5013756;28;20057;-71
2023/05/09 03:48:37;;;;;;;20.13;14.88;;;;;;;;;;5007584;28;20041;-72
2023/05/09 03:51:05;;;;;;;19.75;13.23;;;;;;;;;;5033537;28;20718;-71
2023/05/09 03:53:35;;;;;;;17.27;12.82;;;;;;;;;;5034962;28;20148;-74
2023/05/09 03:56:00;;;;;;;22.63;13.68;;;;;;;;;;5019651;28;20128;-73
2023/05/09 03:58:29;;;;;;;17.17;12.27;;;;;;;;;;5019604;28;20057;-73
2023/05/09 04:00:55;;;;;;;19.60;11.95;;;;;;;;;;5021720;28;20049;-74
2023/05/09 04:03:23;;;;;;;20.85;12.18;;;;;;;;;;5035500;28;21239;-74
2023/05/09 04:05:50;;;;;;;20.08;12.10;;;;;;;;;;5036980;28;20559;-72
2023/05/09 04:08:26;;;;;;;15.52;11.32;;;;;;;;;;5007414;28;20050;-74
2023/05/09 04:10:51;;;;;;;15.55;11.50;;;;;;;;;;5013746;28;20107;-72
2023/05/09 04:13:17;;;;;;;18.60;11.73;;;;;;;;;;5003736;28;20048;-73
2023/05/09 04:15:44;;;;;;;16.92;11.77;;;;;;;;;;5018128;28;20472;-73
2023/05/09 04:18:09;;;;;;;18.05;10.93;;;;;;;;;;5005709;28;20487;-74
2023/05/09 04:20:35;;;;;;;17.10;10.23;;;;;;;;;;5026908;28;20083;-72
2023/05/09 04:23:00;;;;;;;15.85;10.30;;;;;;;;;;5029960;28;20487;-72
2023/05/09 04:25:28;;;;;;;15.95;11.57;;;;;;;;;;5032105;28;20037;-72
2023/05/09 04:27:54;;;;;;;13.48;10.35;;;;;;;;;;5016137;28;20095;-72
2023/05/09 04:30:20;;;;;;;16.23;11.43;;;;;;;;;;5033234;28;20033;-72
2023/05/09 04:32:46;;;;;;;13.38;9.80;;;;;;;;;;5004021;28;20095;-72
2023/05/09 04:35:12;;;;;;;14.48;10.30;;;;;;;;;;5000353;28;20050;-72
2023/05/09 04:37:41;;;;;;;16.95;9.70;;;;;;;;;;5028104;28;20144;-72
2023/05/09 04:40:08;;;;;;;14.07;9.98;;;;;;;;;;5017442;28;21321;-72
2023/05/09 04:42:40;;;;;;;13.43;9.50;;;;;;;;;;4989599;28;20041;-72
2023/05/09 04:45:07;;;;;;;13.73;9.40;;;;;;;;;;4991593;28;20038;-73
2023/05/09 04:47:32;;;;;;;13.52;10.35;;;;;;;;;;4987144;28;20121;-72
2023/05/09 04:49:58;;;;;;;13.30;9.10;;;;;;;;;;4993550;28;20609;-71
2023/05/09 04:52:23;;;;;;;20.38;8.93;;;;;;;;;;4997038;28;20045;-71
2023/05/09 04:54:49;;;;;;;10.20;8.57;;;;;;;;;;4998055;28;20053;-73
2023/05/09 04:57:17;;;;;;;10.95;8.68;;;;;;;;;;5011757;28;20408;-73
2023/05/09 04:59:45;;;;;;;13.00;8.25;;;;;;;;;;4995958;28;20049;-74
2023/05/09 05:02:12;;;;;;;11.85;8.77;;;;;;;;;;4996969;28;20056;-75
2023/05/09 05:04:37;;;;;;;11.80;7.80;;;;;;;;;;4992041;28;20054;-74
2023/05/09 05:07:04;;;;;;;10.70;8.30;;;;;;;;;;4995631;28;20052;-74
2023/05/09 05:09:30;;;;;;;10.52;6.43;;;;;;;;;;5018065;28;20056;-70
2023/05/09 05:11:55;;;;;;;9.73;7.20;;;;;;;;;;5004595;28;20042;-70
2023/05/09 05:14:21;;;;;;;9.98;7.25;;;;;;;;;;4982931;28;20112;-71
2023/05/09 05:16:46;;;;;;;9.10;6.25;;;;;;;;;;4998050;28;20533;-69
2023/05/09 05:19:12;;;;;;;9.30;6.45;;;;;;;;;;4998463;28;20042;-69
2023/05/09 05:21:39;;;;;;;8.55;6.78;;;;;;;;;;5022047;28;20054;-70
2023/05/09 05:24:05;;;;;;;6.68;6.00;;;;;;;;;;5002227;28;20045;-70
2023/05/09 05:26:31;;;;;;;8.35;6.07;;;;;;;;;;4994591;28;20142;-70
2023/05/09 05:28:57;;;;;;;7.93;6.00;;;;;;;;;;5009462;28;20471;-70
2023/05/09 05:31:23;;;;;;;8.80;6.10;;;;;;;;;;4991449;28;20982;-71
2023/05/09 05:33:49;;;;;;;8.25;6.15;;;;;;;;;;4991733;28;20080;-70
2023/05/09 05:36:15;;;;;;;9.30;5.85;;;;;;;;;;4997804;28;20041;-70
2023/05/09 05:38:41;;;;;;;7.38;5.93;;;;;;;;;;4998215;28;20137;-70
2023/05/09 05:41:10;;;;;;;12.00;5.57;;;;;;;;;;4998223;28;20046;-70
2023/05/09 05:43:35;;;;;;;8.07;6.20;;;;;;;;;;5015059;28;20050;-70
2023/05/09 05:46:01;;;;;;;6.55;5.47;;;;;;;;;;4997973;28;20112;-69
2023/05/09 05:48:28;;;;;;;6.05;5.30;;;;;;;;;;4998564;28;20074;-70
2023/05/09 05:50:54;;;;;;;8.55;5.47;;;;;;;;;;4998232;28;20081;-69
2023/05/09 05:53:23;;;;;;;6.35;5.68;;;;;;;;;;4997466;28;20092;-69
2023/05/09 05:55:49;;;;;;;8.07;6.05;;;;;;;;;;4997968;28;20501;-69
2023/05/09 05:58:15;;;;;;;13.77;6.10;;;;;;;;;;4999950;28;20037;-70
2023/05/09 06:00:40;;;;;;;6.97;6.00;;;;;;;;;;4998023;28;20050;-70
2023/05/09 06:03:07;;;;;;;8.85;6.25;;;;;;;;;;4994547;28;20057;-69
2023/05/09 06:05:49;;;;;;;8.77;6.53;;;;;;;;;;5014639;28;20046;-69
2023/05/09 06:08:15;;;;;;;8.02;6.60;;;;;;;;;;5000204;28;20045;-69
2023/05/09 06:10:41;;;;;;;6.28;5.35;;;;;;;;;;5014363;28;20050;-71
2023/05/09 06:13:06;;;;;;;8.32;6.00;;;;;;;;;;4999878;28;20046;-70
2023/05/09 06:15:33;;;;;;;8.73;6.25;;;;;;;;;;4993089;28;20077;-70
2023/05/09 06:17:58;;;;;;;7.22;6.50;;;;;;;;;;4998423;28;20136;-70
2023/05/09 06:20:24;;;;;;;8.57;6.43;;;;;;;;;;4999138;28;20092;-70
2023/05/09 06:22:49;;;;;;;8.52;6.78;;;;;;;;;;5001664;28;20116;-70
2023/05/09 06:25:15;;;;;;;8.05;5.18;;;;;;;;;;5003028;28;20041;-70
2023/05/09 06:27:41;;;;;;;7.75;5.95;;;;;;;;;;5002254;28;20041;-70
2023/05/09 06:30:07;;;;;;;7.78;5.90;;;;;;;;;;5002293;28;20467;-69
2023/05/09 06:32:32;;;;;;;8.30;6.20;;;;;;;;;;4996759;28;20068;-70
2023/05/09 06:34:57;;;;;;;6.70;5.93;;;;;;;;;;5003355;28;20439;-70
2023/05/09 06:37:23;;;;;;;8.15;6.18;;;;;;;;;;4993399;28;20038;-71
2023/05/09 06:39:49;;;;;;;7.88;6.22;;;;;;;;;;5000944;28;21087;-71
2023/05/09 06:42:15;;;;;;;7.45;6.03;;;;;;;;;;5001626;28;20064;-71
2023/05/09 06:44:42;;;;;;;9.10;6.03;;;;;;;;;;5001261;28;20126;-71
2023/05/09 06:47:08;;;;;;;10.52;6.45;;;;;;;;;;5002531;28;20132;-71
2023/05/09 06:49:34;;;;;;;7.32;5.85;;;;;;;;;;4997492;28;20074;-72
2023/05/09 06:51:59;;;;;;;6.55;5.68;;;;;;;;;;5001954;28;20088;-70
2023/05/09 06:54:25;;;;;;;8.95;6.22;;;;;;;;;;5002490;28;20050;-71
2023/05/09 06:56:50;;;;;;;7.72;6.32;;;;;;;;;;5000467;28;20049;-72
2023/05/09 06:59:16;;;;;;;15.90;6.13;;;;;;;;;;5002234;28;20037;-72
2023/05/09 07:01:42;;;;;;;7.82;5.90;;;;;;;;;;5000924;28;20045;-71
2023/05/09 07:04:07;;;;;;;10.88;6.90;;;;;;;;;;5002871;28;20557;-70
2023/05/09 07:06:32;;;;;;;10.50;6.82;;;;;;;;;;5002575;28;20049;-71
2023/05/09 07:08:58;;;;;;;10.30;7.88;;;;;;;;;;5003421;28;20058;-70
2023/05/09 07:11:23;;;;;;;12.32;7.25;;;;;;;;;;5001767;28;20061;-70
2023/05/09 07:13:49;;;;;;;10.45;7.57;;;;;;;;;;5002997;28;20111;-70
2023/05/09 07:16:16;;;;;;;11.20;7.10;;;;;;;;;;5002471;28;20100;-70
2023/05/09 07:18:42;;;;;;;7.78;6.95;;;;;;;;;;5002174;28;20060;-70
2023/05/09 07:21:07;;;;;;;11.32;6.90;;;;;;;;;;5001862;28;20058;-70
2023/05/09 07:23:33;;;;;;;8.20;6.70;;;;;;;;;;4999377;28;20101;-70
2023/05/09 07:25:58;;;;;;;8.30;6.80;;;;;;;;;;5002261;28;20045;-70
2023/05/09 07:28:24;;;;;;;9.18;7.22;;;;;;;;;;5002226;28;20058;-71
2023/05/09 07:30:50;;;;;;;9.18;7.05;;;;;;;;;;5002375;28;20046;-70
2023/05/09 07:33:15;;;;;;;14.60;6.93;;;;;;;;;;5000114;28;20054;-70
2023/05/09 07:35:41;;;;;;;9.25;7.35;;;;;;;;;;5002105;28;20052;-71
2023/05/09 07:38:06;;;;;;;9.68;7.65;;;;;;;;;;5002465;28;20807;-69
2023/05/09 07:40:37;;;;;;;8.57;6.93;;;;;;;;;;5001636;28;20139;-69
2023/05/09 07:43:03;;;;;;;8.73;7.30;;;;;;;;;;4993400;28;20468;-69
2023/05/09 07:45:28;;;;;;;9.68;7.78;;;;;;;;;;5001369;28;20050;-69
2023/05/09 07:47:54;;;;;;;11.80;7.70;;;;;;;;;;5001065;28;20655;-69
2023/05/09 07:50:19;;;;;;;11.35;7.53;;;;;;;;;;4999765;28;20054;-69
2023/05/09 07:52:45;;;;;;;10.43;7.13;;;;;;;;;;5001326;28;20054;-69
2023/05/09 07:55:11;;;;;;;17.15;8.60;;;;;;;;;;4998892;28;20080;-69
2023/05/09 07:57:37;;;;;;;9.43;8.00;;;;;;;;;;5001907;28;20069;-69
2023/05/09 08:00:05;;;;;;;12.30;8.05;;;;;;;;;;5000511;28;20045;-69
2023/05/09 08:02:38;;;;;;;11.82;8.00;;;;;;;;;;5014939;28;20038;-69
2023/05/09 08:05:04;;;;;;;13.05;7.90;;;;;;;;;;5012782;28;20165;-69
2023/05/09 08:07:30;;;;;;;11.27;7.90;;;;;;;;;;5000874;28;20052;-68
2023/05/09 08:09:55;;;;;;;11.13;7.85;;;;;;;;;;5002020;28;20141;-69
2023/05/09 08:12:20;;;;;;;10.25;7.65;;;;;;;;;;5001252;28;20050;-69
2023/05/09 08:14:46;;;;;;;10.57;7.93;;;;;;;;;;5001129;28;20046;-69
2023/05/09 08:17:11;;;;;;;11.98;7.90;;;;;;;;;;5000161;28;20038;-69
2023/05/09 08:19:37;;;;;;;12.95;9.05;;;;;;;;;;5001820;28;20046;-69
2023/05/09 08:22:02;;;;;;;10.70;9.48;;;;;;;;;;5001251;28;20046;-69
2023/05/09 08:24:28;;;;;;;13.38;9.05;;;;;;;;;;4999912;28;20092;-69
2023/05/09 08:26:53;;;;;;;11.00;8.50;;;;;;;;;;5000792;28;20085;-69
2023/05/09 08:29:19;;;;;;;10.63;8.75;;;;;;;;;;5001308;28;20049;-69
2023/05/09 08:31:44;;;;;;;11.73;9.43;;;;;;;;;;4999713;28;20085;-69
2023/05/09 08:34:09;;;;;;;12.40;9.50;;;;;;;;;;5001342;28;20883;-69
2023/05/09 08:36:35;;;;;;;14.70;9.48;;;;;;;;;;5001104;28;20706;-70
2023/05/09 08:39:01;;;;;;;11.25;9.23;;;;;;;;;;5000458;28;20050;-69
2023/05/09 08:41:29;;;;;;;12.75;9.35;;;;;;;;;;4993446;28;20049;-69
2023/05/09 08:43:55;;;;;;;11.20;9.40;;;;;;;;;;5001008;28;20045;-69
2023/05/09 08:46:29;;;;;;;13.05;8.80;;;;;;;;;;5001644;28;20048;-69
2023/05/09 08:48:55;;;;;;;11.20;8.57;;;;;;;;;;5006995;28;20495;-71
2023/05/09 08:51:21;;;;;;;12.05;9.25;;;;;;;;;;5001024;28;20064;-71
2023/05/09 08:53:47;;;;;;;11.93;9.75;;;;;;;;;;5001198;28;20132;-71
2023/05/09 08:56:13;;;;;;;11.38;9.88;;;;;;;;;;5000988;28;20046;-69
2023/05/09 08:58:39;;;;;;;13.52;10.05;;;;;;;;;;5000728;28;20164;-69
2023/05/09 09:01:05;;;;;;;11.73;9.57;;;;;;;;;;4999661;28;20054;-69
2023/05/09 09:03:31;;;;;;;17.88;9.32;;;;;;;;;;4999299;28;20058;-70
2023/05/09 09:05:57;;;;;;;9.50;8.30;;;;;;;;;;5000825;28;20620;-69
2023/05/09 09:08:23;;;;;;;18.17;9.50;;;;;;;;;;4994782;28;20053;-69
2023/05/09 09:10:48;;;;;;;11.98;9.95;;;;;;;;;;4999781;28;20063;-68
2023/05/09 09:13:16;;;;;;;12.40;10.30;;;;;;;;;;5000404;28;20123;-69
2023/05/09 09:15:44;;;;;;;11.35;9.63;;;;;;;;;;4999815;28;20045;-69
2023/05/09 09:18:22;;;;;;;12.13;9.50;;;;;;;;;;5000634;28;20053;-68
2023/05/09 09:20:50;;;;;;;13.48;9.68;;;;;;;;;;4999377;28;20530;-69
2023/05/09 09:23:19;;;;;;;11.50;9.15;;;;;;;;;;5014491;28;20144;-69
2023/05/09 09:25:48;;;;;;;12.60;10.10;;;;;;;;;;5018640;28;20498;-69
2023/05/09 09:28:14;;;;;;;13.57;10.30;;;;;;;;;;5013824;28;20077;-69
2023/05/09 09:30:44;;;;;;;13.13;10.68;;;;;;;;;;5019401;28;20490;-69
2023/05/09 09:33:17;;;;;;;13.05;9.20;;;;;;;;;;5010748;28;20449;-68
2023/05/09 09:35:42;;;;;;;12.07;9.65;;;;;;;;;;5019546;28;20064;-68
2023/05/09 09:38:07;;;;;;;9.85;8.32;;;;;;;;;;5017995;28;20049;-69
2023/05/09 09:40:33;;;;;;;10.05;7.70;;;;;;;;;;5018465;28;20051;-69
2023/05/09 09:42:58;;;;;;;9.43;8.00;;;;;;;;;;5019023;28;20064;-69
2023/05/09 09:45:24;;;;;;;12.77;9.05;;;;;;;;;;5017415;28;20077;-69
2023/05/09 09:47:49;;;;;;;10.18;8.60;;;;;;;;;;5035126;28;20046;-70
2023/05/09 09:50:21;;;;;;;10.48;8.13;;;;;;;;;;5019681;28;20045;-69
2023/05/09 09:52:52;;;;;;;8.90;7.47;;;;;;;;;;5019193;28;20073;-69
2023/05/09 09:55:18;;;;;;;8.68;7.65;;;;;;;;;;5017754;28;20045;-69
2023/05/09 09:57:46;;;;;;;9.75;7.75;;;;;;;;;;5020540;28;20052;-69
2023/05/09 10:00:15;;;;;;;14.73;8.65;;;;;;;;;;5020211;28;20149;-71
2023/05/09 10:02:51;;;;;;;9.98;8.65;;;;;;;;;;5022808;28;20033;-70
2023/05/09 10:05:22;;;;;;;10.45;8.50;;;;;;;;;;5022625;28;20046;-69
2023/05/09 10:07:59;;;;;;;10.88;8.95;;;;;;;;;;5023585;28;20498;-70
2023/05/09 10:10:29;;;;;;;12.68;8.57;;;;;;;;;;5027953;28;20463;-71
2023/05/09 10:13:01;;;;;;;12.77;8.68;;;;;;;;;;4995726;28;20128;-70
2023/05/09 10:15:28;;;;;;;14.57;8.85;;;;;;;;;;5032337;28;20131;-70
2023/05/09 10:17:56;;;;;;;13.15;8.48;;;;;;;;;;5031638;28;20038;-68
2023/05/09 10:20:22;;;;;;;8.85;7.57;;;;;;;;;;5032471;28;20038;-69
2023/05/09 10:22:51;;;;;;;11.85;8.13;;;;;;;;;;5030196;28;20042;-69
2023/05/09 10:25:21;;;;;;;9.70;8.13;;;;;;;;;;5032443;28;20041;-69
2023/05/09 10:27:48;;;;;;;8.20;7.38;;;;;;;;;;5032002;28;20045;-69
2023/05/09 10:30:21;;;;;;;10.02;7.68;;;;;;;;;;5031888;28;20033;-69
2023/05/09 10:33:03;;;;;;;14.32;9.43;;;;;;;;;;5031682;28;20075;-69
2023/05/09 10:35:56;;;;;;;13.00;9.65;;;;;;;;;;5032119;28;20554;-70
2023/05/09 10:38:23;;;;;;;24.40;10.82;;;;;;;;;;5028615;28;20120;-70
2023/05/09 10:40:50;;;;;;;13.38;11.15;;;;;;;;;;5031586;28;20068;-71
2023/05/09 10:43:15;;;;;;;16.00;9.52;;;;;;;;;;5032019;28;20448;-71
2023/05/09 10:45:41;;;;;;;14.80;10.50;;;;;;;;;;5032072;28;20068;-70
2023/05/09 10:48:07;;;;;;;11.93;10.00;;;;;;;;;;5032098;28;20041;-71
2023/05/09 10:50:35;;;;;;;12.60;9.52;;;;;;;;;;5030280;28;20049;-71
2023/05/09 10:53:10;;;;;;;14.27;9.90;;;;;;;;;;5031812;28;20049;-71
2023/05/09 10:55:48;;;;;;;10.00;8.98;;;;;;;;;;5031374;28;20049;-70
2023/05/09 10:58:20;;;;;;;11.68;9.07;;;;;;;;;;5032157;28;20045;-71
2023/05/09 11:00:47;;;;;;;11.20;8.70;;;;;;;;;;5030542;28;20055;-69
2023/05/09 11:03:12;;;;;;;11.75;9.65;;;;;;;;;;5031198;28;20049;-68
2023/05/09 11:05:38;;;;;;;10.93;9.73;;;;;;;;;;5031732;28;20041;-68
2023/05/09 11:08:26;;;;;;;11.93;9.93;;;;;;;;;;5031213;28;20071;-70
2023/05/09 11:10:53;;;;;;;10.90;9.02;;;;;;;;;;5030121;28;20518;-69
2023/05/09 11:13:22;;;;;;;12.95;10.13;;;;;;;;;;5030475;28;20053;-69
2023/05/09 11:16:00;;;;;;;11.43;9.07;;;;;;;;;;5031545;28;20048;-69
2023/05/09 11:18:27;;;;;;;11.50;8.88;;;;;;;;;;5031039;28;20079;-69
2023/05/09 11:20:53;;;;;;;11.20;8.63;;;;;;;;;;5031591;28;20088;-69
2023/05/09 11:23:20;;;;;;;11.00;8.85;;;;;;;;;;5030476;28;20054;-69
2023/05/09 11:25:46;;;;;;;9.88;8.88;;;;;;;;;;5031771;28;20057;-69
2023/05/09 11:28:34;;;;;;;10.85;9.35;;;;;;;;;;5031537;28;20778;-69
2023/05/09 11:31:19;;;;;;;16.70;9.02;;;;;;;;;;5041923;28;20414;-70
2023/05/09 11:33:48;;;;;;;11.55;9.30;;;;;;;;;;5016901;28;20635;-69
2023/05/09 11:36:23;;;;;;;13.10;10.32;;;;;;;;;;5013369;28;20050;-69
2023/05/09 11:39:00;;;;;;;12.10;9.65;;;;;;;;;;5009000;28;20439;-69
2023/05/09 11:41:26;;;;;;;11.63;8.80;;;;;;;;;;5026491;28;20030;-68
2023/05/09 11:43:51;;;;;;;11.73;8.73;;;;;;;;;;5029045;28;20048;-69
2023/05/09 11:46:17;;;;;;;10.73;9.27;;;;;;;;;;5027144;28;20880;-69
2023/05/09 11:48:42;;;;;;;11.00;8.63;;;;;;;;;;5027649;28;20405;-68
2023/05/09 11:51:15;;;;;;;13.02;9.05;;;;;;;;;;5015949;28;20041;-68
2023/05/09 11:53:45;;;;;;;10.02;8.52;;;;;;;;;;5018698;28;20037;-69
2023/05/09 11:56:11;;;;;;;11.35;9.20;;;;;;;;;;5015777;28;20549;-69
2023/05/09 11:58:38;;;;;;;10.75;9.65;;;;;;;;;;5017296;28;20434;-68
2023/05/09 12:01:04;;;;;;;12.93;9.25;;;;;;;;;;5020072;28;20045;-67
2023/05/09 12:03:29;;;;;;;12.20;8.52;;;;;;;;;;5018692;28;20048;-68
2023/05/09 12:05:55;;;;;;;8.93;8.02;;;;;;;;;;5014090;28;20045;-70
2023/05/09 12:08:23;;;;;;;10.10;8.32;;;;;;;;;;5025394;28;20049;-69
2023/05/09 12:10:48;;;;;;;12.93;8.50;;;;;;;;;;5028039;28;20119;-68
2023/05/09 12:13:14;;;;;;;9.00;7.40;;;;;;;;;;5027853;28;20045;-68
2023/05/09 12:15:39;;;;;;;11.85;9.40;;;;;;;;;;5028685;28;20554;-70
2023/05/09 12:18:07;;;;;;;12.25;9.25;;;;;;;;;;5026483;28;20057;-71
2023/05/09 12:20:44;;;;;;;12.18;9.32;;;;;;;;;;5029941;28;20069;-70
2023/05/09 12:23:11;;;;;;;10.85;8.38;;;;;;;;;;5047461;28;20046;-70
2023/05/09 12:25:37;;;;;;;10.82;8.00;;;;;;;;;;5025261;28;20056;-70
2023/05/09 12:28:03;;;;;;;12.43;8.60;;;;;;;;;;5026328;28;20490;-70
2023/05/09 12:30:28;;;;;;;11.48;9.10;;;;;;;;;;5020775;28;20045;-70
2023/05/09 12:32:55;;;;;;;9.13;7.82;;;;;;;;;;5024244;28;20103;-71
2023/05/09 12:35:22;;;;;;;9.27;8.30;;;;;;;;;;5024809;28;20148;-71
2023/05/09 12:37:56;;;;;;;12.95;8.20;;;;;;;;;;5028992;28;20049;-71
2023/05/09 12:40:22;;;;;;;11.50;8.23;;;;;;;;;;5022080;28;20049;-71
2023/05/09 12:42:48;;;;;;;12.85;8.40;;;;;;;;;;5011504;28;20108;-71
2023/05/09 12:45:14;;;;;;;9.25;8.35;;;;;;;;;;5010853;28;20049;-71
2023/05/09 12:47:40;;;;;;;15.15;8.25;;;;;;;;;;5029102;28;20783;-70
2023/05/09 12:50:07;;;;;;;10.38;8.55;;;;;;;;;;5025538;28;20565;-71
2023/05/09 12:52:38;;;;;;;9.73;7.85;;;;;;;;;;5017369;28;20057;-71
2023/05/09 12:55:11;;;;;;;12.23;8.50;;;;;;;;;;5029524;28;20410;-70
2023/05/09 12:57:37;;;;;;;8.95;7.80;;;;;;;;;;5029787;28;20484;-71
2023/05/09 13:00:05;;;;;;;10.27;7.63;;;;;;;;;;5029959;28;20052;-71
2023/05/09 13:02:40;;;;;;;10.35;7.55;;;;;;;;;;5018772;28;20049;-70
2023/05/09 13:05:09;;;;;;;8.70;7.30;;;;;;;;;;5027134;28;20136;-71
2023/05/09 13:07:42;;;;;;;11.30;7.25;;;;;;;;;;5029414;28;20049;-70
2023/05/09 13:10:18;;;;;;;7.97;7.18;;;;;;;;;;5020319;28;20586;-70
2023/05/09 13:12:45;;;;;;;8.40;7.25;;;;;;;;;;5012884;28;20100;-70
2023/05/09 13:15:11;;;;;;;8.02;7.22;;;;;;;;;;5014976;28;20043;-70
2023/05/09 13:17:37;;;;;;;14.63;7.90;;;;;;;;;;5028100;28;20057;-70
2023/05/09 13:20:05;;;;;;;9.18;8.05;;;;;;;;;;5029011;28;20422;-70
2023/05/09 13:22:31;;;;;;;10.57;7.45;;;;;;;;;;5028216;28;20099;-69
2023/05/09 13:24:57;;;;;;;9.07;6.85;;;;;;;;;;5027621;28;20045;-71
2023/05/09 13:27:22;;;;;;;9.30;6.90;;;;;;;;;;5028838;28;20111;-70
2023/05/09 13:29:47;;;;;;;10.35;7.32;;;;;;;;;;5029240;28;20048;-70
2023/05/09 13:32:13;;;;;;;7.13;6.22;;;;;;;;;;5018298;28;20041;-70
2023/05/09 13:34:40;;;;;;;8.75;6.35;;;;;;;;;;5019979;28;20406;-70
2023/05/09 13:37:05;;;;;;;7.13;6.13;;;;;;;;;;5026432;28;20144;-69
2023/05/09 13:39:31;;;;;;;9.85;6.25;;;;;;;;;;5029089;28;20128;-69
2023/05/09 13:41:56;;;;;;;10.40;6.55;;;;;;;;;;5028631;28;20131;-70
2023/05/09 13:44:25;;;;;;;9.10;6.93;;;;;;;;;;5028168;28;20052;-70
2023/05/09 13:46:51;;;;;;;8.30;6.40;;;;;;;;;;5027374;28;20116;-69
2023/05/09 13:49:16;;;;;;;10.90;7.03;;;;;;;;;;5028566;28;20132;-69
2023/05/09 13:51:43;;;;;;;12.77;7.07;;;;;;;;;;5028001;28;20049;-69
2023/05/09 13:54:11;;;;;;;7.13;6.18;;;;;;;;;;5028643;28;20052;-69
2023/05/09 13:56:41;;;;;;;8.15;6.10;;;;;;;;;;5026718;28;20056;-69
2023/05/09 13:59:07;;;;;;;7.45;6.55;;;;;;;;;;5021501;28;20528;-69
2023/05/09 14:01:33;;;;;;;13.73;6.38;;;;;;;;;;5017850;28;20049;-70
2023/05/09 14:03:58;;;;;;;9.88;5.75;;;;;;;;;;5025425;28;20402;-70
2023/05/09 14:06:23;;;;;;;9.55;6.82;;;;;;;;;;5028680;28;20038;-69
2023/05/09 14:08:49;;;;;;;7.65;6.40;;;;;;;;;;5026651;28;20421;-69
2023/05/09 14:11:15;;;;;;;7.38;6.00;;;;;;;;;;5028412;28;20199;-70
2023/05/09 14:13:41;;;;;;;7.78;5.97;;;;;;;;;;5028692;28;20076;-70
2023/05/09 14:16:07;;;;;;;11.30;6.45;;;;;;;;;;5027848;28;20422;-69
2023/05/09 14:18:32;;;;;;;10.05;6.07;;;;;;;;;;5025194;28;20052;-69
2023/05/09 14:20:58;;;;;;;7.07;6.38;;;;;;;;;;5024092;28;20045;-69
2023/05/09 14:23:23;;;;;;;9.80;6.78;;;;;;;;;;5016646;28;20099;-69
2023/05/09 14:25:49;;;;;;;11.95;7.30;;;;;;;;;;5018580;28;20061;-70
2023/05/09 14:28:14;;;;;;;10.02;6.50;;;;;;;;;;5016156;28;20056;-69
2023/05/09 14:30:40;;;;;;;10.32;6.60;;;;;;;;;;5017713;28;20037;-69